Time;durP1;ratioP1;P1;durP2;ratioP2;P2;SDS_P1;SDS_P2;PMS_P1;PMS_P2;Temp;Humidity;BMP_temperature;BMP_pressure;BME280_temperature;BME280_humidity;BME280_pressure;Samples;Min_cycle;Max_cycle;Signal;HPM_P1;HPM_P2
2021/01/15 00:01:24;;;;;;;8.57;5.60;;;4.80;95.30;;;;;;5060579;28;20024;-71
2021/01/15 00:03:50;;;;;;;9.48;5.35;;;4.80;95.30;;;;;;5072317;28;20016;-71
2021/01/15 00:06:23;;;;;;;10.20;5.80;;;4.80;95.40;;;;;;5062373;28;20063;-71
2021/01/15 00:08:49;;;;;;;9.98;5.57;;;4.80;95.40;;;;;;5056449;28;20029;-71
2021/01/15 00:11:17;;;;;;;11.38;5.55;;;4.80;95.30;;;;;;5068026;28;20450;-71
2021/01/15 00:13:42;;;;;;;11.25;5.22;;;4.70;95.20;;;;;;5053958;28;20036;-71
2021/01/15 00:16:18;;;;;;;9.88;5.32;;;4.70;95.20;;;;;;5055494;28;20029;-70
2021/01/15 00:18:44;;;;;;;10.07;5.57;;;4.70;95.20;;;;;;5053506;28;20106;-72
2021/01/15 00:21:22;;;;;;;9.13;5.45;;;4.60;95.20;;;;;;5057127;28;20434;-71
2021/01/15 00:23:49;;;;;;;9.85;6.30;;;4.50;95.30;;;;;;5052839;28;20025;-71
2021/01/15 00:26:18;;;;;;;10.90;5.13;;;4.50;95.40;;;;;;5060109;28;20028;-71
2021/01/15 00:28:44;;;;;;;8.65;5.70;;;4.50;95.40;;;;;;5072135;28;20025;-71
2021/01/15 00:31:12;;;;;;;13.40;5.82;;;4.60;95.40;;;;;;5059891;28;20113;-71
2021/01/15 00:33:37;;;;;;;10.35;5.65;;;4.60;95.30;;;;;;5072073;28;20016;-70
2021/01/15 00:36:05;;;;;;;15.43;6.50;;;4.60;95.40;;;;;;5068345;28;20378;-70
2021/01/15 00:38:30;;;;;;;9.57;5.70;;;4.50;95.30;;;;;;5058636;28;20082;-69
2021/01/15 00:41:14;;;;;;;10.75;6.22;;;4.50;95.30;;;;;;5052015;28;20104;-70
2021/01/15 00:43:39;;;;;;;11.93;5.47;;;4.50;95.30;;;;;;5053617;28;20116;-70
2021/01/15 00:46:08;;;;;;;9.57;5.85;;;4.50;95.40;;;;;;5059927;28;20511;-70
2021/01/15 00:48:34;;;;;;;11.10;5.93;;;4.50;95.40;;;;;;5060034;28;20021;-70
2021/01/15 00:51:10;;;;;;;8.65;5.20;;;4.60;95.30;;;;;;5050309;28;20122;-70
2021/01/15 00:53:37;;;;;;;10.80;5.93;;;4.50;95.30;;;;;;5050576;28;20037;-71
2021/01/15 00:56:03;;;;;;;11.88;5.75;;;4.50;95.30;;;;;;5056461;28;20036;-70
2021/01/15 00:58:28;;;;;;;10.02;5.93;;;4.60;95.30;;;;;;5063674;28;20035;-71
2021/01/15 01:00:54;;;;;;;11.57;6.43;;;4.60;95.30;;;;;;5056517;28;20032;-71
2021/01/15 01:03:19;;;;;;;12.02;6.32;;;4.50;95.20;;;;;;5076598;28;20035;-70
2021/01/15 01:05:45;;;;;;;10.50;6.40;;;4.50;95.30;;;;;;5065906;28;20474;-70
2021/01/15 01:08:10;;;;;;;8.98;6.25;;;4.40;95.30;;;;;;5070258;28;20021;-70
2021/01/15 01:10:37;;;;;;;11.07;6.63;;;4.40;95.40;;;;;;5059110;28;20047;-70
2021/01/15 01:13:03;;;;;;;8.98;4.75;;;4.30;95.40;;;;;;5067039;28;20055;-70
2021/01/15 01:15:28;;;;;;;10.10;5.13;;;4.30;95.50;;;;;;5074240;28;20028;-70
2021/01/15 01:17:54;;;;;;;8.23;5.60;;;4.20;95.50;;;;;;5071176;28;20305;-70
2021/01/15 01:20:19;;;;;;;11.30;5.93;;;4.30;95.50;;;;;;5063185;28;20029;-70
2021/01/15 01:22:49;;;;;;;9.63;5.82;;;4.30;95.60;;;;;;5072420;28;20032;-70
2021/01/15 01:25:17;;;;;;;11.35;5.95;;;4.20;95.60;;;;;;5068256;28;20033;-70
2021/01/15 01:27:43;;;;;;;10.15;5.70;;;4.20;95.60;;;;;;5051233;28;20489;-70
2021/01/15 01:30:09;;;;;;;11.35;5.93;;;4.20;95.60;;;;;;5051683;28;20116;-70
2021/01/15 01:32:34;;;;;;;10.63;5.88;;;4.20;95.70;;;;;;5061999;28;20124;-70
2021/01/15 01:35:00;;;;;;;12.30;5.93;;;4.30;95.70;;;;;;5051672;28;20033;-70
2021/01/15 01:37:25;;;;;;;10.63;5.50;;;4.20;95.70;;;;;;5051766;28;20028;-70
2021/01/15 01:39:51;;;;;;;11.68;5.80;;;4.20;95.80;;;;;;5051816;28;20041;-71
2021/01/15 01:42:16;;;;;;;9.93;5.70;;;4.20;95.70;;;;;;5068199;28;20032;-71
2021/01/15 01:44:42;;;;;;;10.32;5.15;;;4.20;95.70;;;;;;5065369;28;20086;-70
2021/01/15 01:47:08;;;;;;;9.90;5.80;;;4.20;95.70;;;;;;5054675;28;20384;-70
2021/01/15 01:49:35;;;;;;;11.82;5.22;;;4.20;95.70;;;;;;5055853;28;20401;-70
2021/01/15 01:52:03;;;;;;;12.63;5.97;;;4.20;95.60;;;;;;5055369;28;20044;-70
2021/01/15 01:54:33;;;;;;;13.00;5.72;;;4.20;95.60;;;;;;5055990;28;20032;-71
2021/01/15 01:56:58;;;;;;;10.65;5.88;;;4.20;95.60;;;;;;5069535;28;20404;-71
2021/01/15 01:59:24;;;;;;;10.85;5.43;;;4.20;95.60;;;;;;5065319;28;20029;-71
2021/01/15 02:01:50;;;;;;;10.15;5.25;;;4.20;95.70;;;;;;5056318;28;20048;-72
2021/01/15 02:04:15;;;;;;;11.13;5.40;;;4.20;95.60;;;;;;5058063;28;20036;-70
2021/01/15 02:06:41;;;;;;;9.25;6.20;;;4.20;95.60;;;;;;5068696;28;20036;-69
2021/01/15 02:09:07;;;;;;;10.95;6.05;;;4.20;95.60;;;;;;5075936;28;20029;-70
2021/01/15 02:11:51;;;;;;;9.93;5.50;;;4.20;95.60;;;;;;5078456;28;20041;-70
2021/01/15 02:14:29;;;;;;;10.50;6.07;;;4.20;95.60;;;;;;5081389;28;20054;-70
2021/01/15 02:16:56;;;;;;;10.65;5.35;;;4.20;95.60;;;;;;5062627;28;20477;-70
2021/01/15 02:19:37;;;;;;;9.73;6.13;;;4.20;95.70;;;;;;5059328;28;20036;-70
2021/01/15 02:22:40;;;;;;;10.38;5.75;;;4.20;95.60;;;;;;5073951;28;20541;-71
2021/01/15 02:25:41;;;;;;;9.73;6.43;;;4.10;95.60;;;;;;5072510;28;20036;-70
2021/01/15 02:28:31;;;;;;;10.43;5.85;;;4.10;95.50;;;;;;5039806;28;20527;-70
2021/01/15 02:31:20;;;;;;;11.20;5.75;;;4.10;95.60;;;;;;5052291;28;20391;-70
2021/01/15 02:34:01;;;;;;;10.15;6.53;;;4.10;95.60;;;;;;5075904;28;20107;-70
2021/01/15 02:36:35;;;;;;;11.30;6.22;;;4.10;95.80;;;;;;5061785;28;20036;-70
2021/01/15 02:39:28;;;;;;;12.70;5.65;;;4.10;95.70;;;;;;5054342;28;20029;-70
2021/01/15 02:41:55;;;;;;;11.32;6.00;;;4.10;95.70;;;;;;5055930;28;20047;-69
2021/01/15 02:44:22;;;;;;;10.32;6.47;;;4.10;95.70;;;;;;5054339;28;20057;-70
2021/01/15 02:46:53;;;;;;;13.20;6.47;;;4.10;95.60;;;;;;5053302;28;20044;-69
2021/01/15 02:49:20;;;;;;;8.85;5.43;;;4.10;95.60;;;;;;5053047;28;20164;-70
2021/01/15 02:51:46;;;;;;;12.70;6.32;;;4.10;95.50;;;;;;5053377;28;20040;-70
2021/01/15 02:54:11;;;;;;;9.80;6.18;;;4.10;95.50;;;;;;5055366;28;20110;-70
2021/01/15 02:56:37;;;;;;;13.23;7.05;;;4.10;95.50;;;;;;5058065;28;20044;-70
2021/01/15 02:59:07;;;;;;;9.75;6.18;;;4.20;95.50;;;;;;5085716;28;20468;-70
2021/01/15 03:01:55;;;;;;;11.13;5.82;;;4.10;95.50;;;;;;5080282;28;20050;-70
2021/01/15 03:04:36;;;;;;;13.13;6.55;;;4.20;95.60;;;;;;5053503;28;20136;-70
2021/01/15 03:07:03;;;;;;;14.52;6.63;;;4.20;95.60;;;;;;5054246;28;20116;-70
2021/01/15 03:09:43;;;;;;;12.77;7.03;;;4.20;95.70;;;;;;5053328;28;20497;-70
2021/01/15 03:12:09;;;;;;;11.15;6.47;;;4.20;95.70;;;;;;5052666;28;20132;-70
2021/01/15 03:14:36;;;;;;;11.40;6.47;;;4.30;95.70;;;;;;5052078;28;20044;-70
2021/01/15 03:17:08;;;;;;;10.38;6.50;;;4.30;95.70;;;;;;5053489;28;20049;-70
2021/01/15 03:19:34;;;;;;;11.18;6.78;;;4.30;95.70;;;;;;5052957;28;20037;-70
2021/01/15 03:22:17;;;;;;;9.27;6.13;;;4.30;95.60;;;;;;5060889;28;20036;-72
2021/01/15 03:24:55;;;;;;;8.80;5.38;;;4.30;95.50;;;;;;5054583;28;20025;-73
2021/01/15 03:27:22;;;;;;;10.45;6.55;;;4.30;95.40;;;;;;5060022;28;20036;-72
2021/01/15 03:29:47;;;;;;;10.02;6.47;;;4.20;95.10;;;;;;5052143;28;20044;-72
2021/01/15 03:32:13;;;;;;;9.32;6.05;;;4.20;95.00;;;;;;5063423;28;20044;-73
2021/01/15 03:34:39;;;;;;;10.50;6.60;;;4.10;95.20;;;;;;5072828;28;20078;-72
2021/01/15 03:37:05;;;;;;;12.23;6.72;;;4.10;95.20;;;;;;5061856;28;20127;-72
2021/01/15 03:39:30;;;;;;;10.27;6.38;;;4.00;95.30;;;;;;5052275;28;20075;-71
2021/01/15 03:41:56;;;;;;;9.77;5.43;;;4.00;95.30;;;;;;5052527;28;20430;-72
2021/01/15 03:44:41;;;;;;;10.35;6.53;;;4.00;95.30;;;;;;5051361;28;20431;-72
2021/01/15 03:47:30;;;;;;;10.98;6.43;;;4.10;95.30;;;;;;5063266;28;20040;-71
2021/01/15 03:49:58;;;;;;;12.18;6.28;;;4.10;95.20;;;;;;5051129;28;20108;-71
2021/01/15 03:52:23;;;;;;;10.93;6.13;;;4.00;95.20;;;;;;5051385;28;20040;-71
2021/01/15 03:54:48;;;;;;;10.05;5.13;;;4.00;95.40;;;;;;5052457;28;20055;-72
2021/01/15 03:57:14;;;;;;;9.30;5.53;;;4.10;95.40;;;;;;5050725;28;20166;-72
2021/01/15 03:59:40;;;;;;;9.13;5.93;;;4.10;95.40;;;;;;5066887;28;20016;-72
2021/01/15 04:02:05;;;;;;;9.25;5.95;;;4.10;95.30;;;;;;5060470;28;20028;-72
2021/01/15 04:04:31;;;;;;;13.00;5.82;;;4.10;95.20;;;;;;5051982;28;20024;-72
2021/01/15 04:06:58;;;;;;;13.95;6.90;;;4.10;95.20;;;;;;5051996;28;20051;-72
2021/01/15 04:09:24;;;;;;;11.85;6.45;;;4.10;95.20;;;;;;5051416;28;20103;-72
2021/01/15 04:11:49;;;;;;;10.05;6.38;;;4.10;95.10;;;;;;5058081;28;20064;-72
2021/01/15 04:14:15;;;;;;;9.55;5.40;;;4.20;95.20;;;;;;5070417;28;20017;-72
2021/01/15 04:16:40;;;;;;;10.88;5.95;;;4.20;95.20;;;;;;5064415;28;20036;-72
2021/01/15 04:19:06;;;;;;;12.13;6.43;;;4.20;95.10;;;;;;5051535;28;20553;-72
2021/01/15 04:21:31;;;;;;;9.45;6.10;;;4.20;95.10;;;;;;5055924;28;20027;-72
2021/01/15 04:23:57;;;;;;;11.90;6.50;;;4.20;95.20;;;;;;5071655;28;20419;-71
2021/01/15 04:26:22;;;;;;;11.43;6.55;;;4.20;95.10;;;;;;5064510;28;20029;-71
2021/01/15 04:28:49;;;;;;;11.02;6.80;;;4.20;95.10;;;;;;5051937;28;20013;-72
2021/01/15 04:31:21;;;;;;;9.63;6.47;;;4.20;95.10;;;;;;5053091;28;20059;-72
2021/01/15 04:33:46;;;;;;;11.80;6.95;;;4.20;95.10;;;;;;5071321;28;20021;-71
2021/01/15 04:36:12;;;;;;;13.57;6.53;;;4.20;94.90;;;;;;5066822;28;20499;-70
2021/01/15 04:38:42;;;;;;;10.00;6.07;;;4.10;94.80;;;;;;5052304;28;20051;-71
2021/01/15 04:41:08;;;;;;;12.20;6.38;;;4.10;94.90;;;;;;5053878;28;20032;-70
2021/01/15 04:43:39;;;;;;;9.57;6.07;;;4.10;94.90;;;;;;5071339;28;20060;-70
2021/01/15 04:46:06;;;;;;;8.45;5.70;;;4.10;94.80;;;;;;5068150;28;20039;-70
2021/01/15 04:48:33;;;;;;;14.93;6.10;;;4.10;94.80;;;;;;5069967;28;20410;-71
2021/01/15 04:50:59;;;;;;;9.48;6.53;;;4.00;94.50;;;;;;5068204;28;20036;-70
2021/01/15 04:53:27;;;;;;;7.95;5.28;;;3.90;94.60;;;;;;5051215;28;20043;-73
2021/01/15 04:55:58;;;;;;;7.97;5.10;;;3.90;94.60;;;;;;5065394;28;20033;-70
2021/01/15 04:58:32;;;;;;;9.82;5.82;;;3.90;94.40;;;;;;5051405;28;20080;-70
2021/01/15 05:00:58;;;;;;;8.30;5.40;;;3.80;94.40;;;;;;5050710;28;20036;-72
2021/01/15 05:03:27;;;;;;;9.20;5.72;;;3.80;94.20;;;;;;5066522;28;20119;-71
2021/01/15 05:05:59;;;;;;;8.18;4.80;;;3.70;94.20;;;;;;5050608;28;20029;-71
2021/01/15 05:08:28;;;;;;;9.10;5.22;;;3.70;94.20;;;;;;5050782;28;20041;-71
2021/01/15 05:10:55;;;;;;;12.38;5.57;;;3.70;94.10;;;;;;5050145;28;20024;-71
2021/01/15 05:13:21;;;;;;;7.85;5.05;;;3.60;94.00;;;;;;5060840;28;20059;-71
2021/01/15 05:15:49;;;;;;;7.18;4.60;;;3.60;93.80;;;;;;5050934;28;20059;-71
2021/01/15 05:18:17;;;;;;;10.45;5.93;;;3.50;93.60;;;;;;5081314;28;20025;-71
2021/01/15 05:20:44;;;;;;;8.50;5.07;;;3.60;93.80;;;;;;5053101;28;22455;-71
2021/01/15 05:23:09;;;;;;;7.60;4.45;;;3.60;93.70;;;;;;5073129;28;20111;-71
2021/01/15 05:25:44;;;;;;;7.57;4.90;;;3.50;93.50;;;;;;5075237;28;20116;-72
2021/01/15 05:28:10;;;;;;;;;;;3.50;93.50;;;;;;5073191;28;20079;-71
2021/01/15 05:30:38;;;;;;;7.82;4.60;;;3.40;93.30;;;;;;5061240;28;19916;-70
2021/01/15 05:33:10;;;;;;;8.13;4.68;;;3.30;93.40;;;;;;5054999;28;20025;-70
2021/01/15 05:35:53;;;;;;;7.53;5.03;;;3.30;93.40;;;;;;5053439;28;20025;-69
2021/01/15 05:38:21;;;;;;;10.38;4.88;;;3.40;93.40;;;;;;5074203;28;20127;-69
2021/01/15 05:40:51;;;;;;;8.55;4.97;;;3.40;93.40;;;;;;5074080;28;20115;-70
2021/01/15 05:43:31;;;;;;;9.43;5.93;;;3.30;93.30;;;;;;5055480;28;20025;-70
2021/01/15 05:46:08;;;;;;;10.48;5.63;;;3.20;93.30;;;;;;5054511;28;20148;-69
2021/01/15 05:48:34;;;;;;;8.52;5.65;;;3.20;93.30;;;;;;5069929;28;20027;-70
2021/01/15 05:51:00;;;;;;;8.85;5.55;;;3.20;93.40;;;;;;5053724;28;20052;-70
2021/01/15 05:53:26;;;;;;;10.10;5.75;;;3.20;93.40;;;;;;5054671;28;20421;-70
2021/01/15 05:55:56;;;;;;;8.48;5.38;;;3.20;93.40;;;;;;5054075;28;20082;-70
2021/01/15 05:58:21;;;;;;;8.90;5.70;;;3.20;93.40;;;;;;5061163;28;20035;-70
2021/01/15 06:00:51;;;;;;;9.38;5.93;;;3.20;93.30;;;;;;5070352;28;20025;-70
2021/01/15 06:03:17;;;;;;;8.80;5.75;;;3.20;93.50;;;;;;5073292;28;20158;-70
2021/01/15 06:05:49;;;;;;;9.80;5.75;;;3.20;93.30;;;;;;5058168;28;20033;-71
2021/01/15 06:08:14;;;;;;;10.15;5.70;;;3.20;93.30;;;;;;5065324;28;20424;-71
2021/01/15 06:10:44;;;;;;;10.30;5.82;;;3.30;93.30;;;;;;5054153;28;20032;-70
2021/01/15 06:13:10;;;;;;;9.98;5.95;;;3.20;93.10;;;;;;5071687;28;20085;-70
2021/01/15 06:15:46;;;;;;;11.98;6.65;;;3.20;93.00;;;;;;5070202;28;20116;-71
2021/01/15 06:18:16;;;;;;;14.10;6.35;;;3.20;93.10;;;;;;5059612;28;20082;-70
2021/01/15 06:20:44;;;;;;;10.05;6.32;;;3.20;93.30;;;;;;5053427;28;20033;-70
2021/01/15 06:23:13;;;;;;;10.40;5.97;;;3.20;93.30;;;;;;5052385;28;20033;-70
2021/01/15 06:25:55;;;;;;;10.38;6.43;;;3.20;93.30;;;;;;5053869;28;20044;-70
2021/01/15 06:28:33;;;;;;;14.23;6.43;;;3.20;93.50;;;;;;5053663;28;20119;-70
2021/01/15 06:31:00;;;;;;;9.00;5.30;;;3.20;93.50;;;;;;5054704;28;20041;-70
2021/01/15 06:33:26;;;;;;;11.82;5.55;;;3.30;93.50;;;;;;5053145;28;20029;-70
2021/01/15 06:35:51;;;;;;;7.18;4.88;;;3.30;93.10;;;;;;5053248;28;20382;-70
2021/01/15 06:38:18;;;;;;;10.40;6.10;;;3.30;93.30;;;;;;5072473;28;20021;-71
2021/01/15 06:40:46;;;;;;;9.82;6.13;;;3.40;93.40;;;;;;5067243;28;20099;-67
2021/01/15 06:43:17;;;;;;;9.40;5.82;;;3.40;93.40;;;;;;5054734;28;20116;-65
2021/01/15 06:45:57;;;;;;;9.65;5.88;;;3.30;93.20;;;;;;5053862;28;20029;-66
2021/01/15 06:48:36;;;;;;;8.90;5.07;;;3.40;93.20;;;;;;5072359;28;20021;-66
2021/01/15 06:51:03;;;;;;;13.85;6.40;;;3.40;93.20;;;;;;5068709;28;20063;-67
2021/01/15 06:53:30;;;;;;;7.95;5.10;;;3.40;93.10;;;;;;5060244;28;20332;-66
2021/01/15 06:56:00;;;;;;;8.27;5.05;;;3.40;92.90;;;;;;5053437;28;20029;-66
2021/01/15 06:58:27;;;;;;;8.77;5.45;;;3.30;92.70;;;;;;5065100;28;20430;-67
2021/01/15 07:01:09;;;;;;;9.77;5.40;;;3.20;92.70;;;;;;5066290;28;20108;-67
2021/01/15 07:04:16;;;;;;;10.40;5.88;;;3.20;92.90;;;;;;5055486;28;20036;-67
2021/01/15 07:07:12;;;;;;;11.93;6.93;;;3.20;93.20;;;;;;5057748;28;20426;-67
2021/01/15 07:09:40;;;;;;;7.82;5.30;;;3.30;93.20;;;;;;5067488;28;20107;-67
2021/01/15 07:12:09;;;;;;;12.82;5.80;;;3.30;93.20;;;;;;5061158;28;20056;-68
2021/01/15 07:14:44;;;;;;;7.97;5.60;;;3.30;93.20;;;;;;5073183;28;20423;-67
2021/01/15 07:17:14;;;;;;;9.88;5.30;;;3.30;93.00;;;;;;5058523;28;20060;-66
2021/01/15 07:19:43;;;;;;;9.07;5.30;;;3.30;92.90;;;;;;5052990;28;20025;-67
2021/01/15 07:22:10;;;;;;;8.73;4.72;;;3.30;92.70;;;;;;5062093;28;20362;-67
2021/01/15 07:24:38;;;;;;;7.72;4.85;;;3.30;92.70;;;;;;5070554;28;20028;-66
2021/01/15 07:27:06;;;;;;;8.57;5.03;;;3.30;92.80;;;;;;5053494;28;20029;-67
2021/01/15 07:29:35;;;;;;;8.82;5.35;;;3.30;92.60;;;;;;5057443;28;20103;-68
2021/01/15 07:32:07;;;;;;;7.38;4.80;;;3.30;92.60;;;;;;5070648;28;20044;-68
2021/01/15 07:34:37;;;;;;;9.55;5.53;;;3.30;92.70;;;;;;5072019;28;20485;-67
2021/01/15 07:37:22;;;;;;;9.70;5.80;;;3.20;92.50;;;;;;5058352;28;20043;-67
2021/01/15 07:40:07;;;;;;;7.95;5.38;;;3.20;92.60;;;;;;5052379;28;20381;-66
2021/01/15 07:42:53;;;;;;;9.55;5.82;;;3.20;92.50;;;;;;5064714;28;20082;-66
2021/01/15 07:45:27;;;;;;;9.55;5.82;;;3.20;92.50;;;;;;5070925;28;20411;-67
2021/01/15 07:48:06;;;;;;;7.28;4.88;;;3.20;92.60;;;;;;5067927;28;20059;-66
2021/01/15 07:50:39;;;;;;;9.10;5.20;;;3.20;92.40;;;;;;5071726;28;20393;-66
2021/01/15 07:53:13;;;;;;;7.78;5.10;;;3.20;92.40;;;;;;5053475;28;20063;-66
2021/01/15 07:55:50;;;;;;;8.23;5.20;;;3.20;92.30;;;;;;5052840;28;20393;-67
2021/01/15 07:58:21;;;;;;;8.82;5.47;;;3.10;92.30;;;;;;5052466;28;20033;-67
2021/01/15 08:00:48;;;;;;;9.30;5.63;;;3.10;92.40;;;;;;5052476;28;20412;-67
2021/01/15 08:03:14;;;;;;;9.07;5.57;;;3.20;92.50;;;;;;5052475;28;20079;-67
2021/01/15 08:05:42;;;;;;;8.63;5.45;;;3.20;92.50;;;;;;5050790;28;20032;-68
2021/01/15 08:08:08;;;;;;;11.10;5.72;;;3.20;92.40;;;;;;5055515;28;20388;-68
2021/01/15 08:10:44;;;;;;;7.53;4.95;;;3.30;91.90;;;;;;5060346;28;20120;-68
2021/01/15 08:13:27;;;;;;;7.68;5.20;;;3.20;92.00;;;;;;5069668;28;20402;-68
2021/01/15 08:15:55;;;;;;;7.32;5.00;;;3.20;92.00;;;;;;5071037;28;20465;-69
2021/01/15 08:18:21;;;;;;;8.13;4.93;;;3.20;91.90;;;;;;5068344;28;20032;-67
2021/01/15 08:20:52;;;;;;;9.40;5.88;;;3.20;92.00;;;;;;5061849;28;20028;-68
2021/01/15 08:23:22;;;;;;;9.77;5.65;;;3.20;92.00;;;;;;5070275;28;20024;-69
2021/01/15 08:25:52;;;;;;;8.07;5.13;;;3.20;91.90;;;;;;5060623;28;20496;-69
2021/01/15 08:28:19;;;;;;;8.93;5.35;;;3.10;91.90;;;;;;5051207;28;20029;-67
2021/01/15 08:31:00;;;;;;;8.63;5.25;;;3.20;92.00;;;;;;5072586;28;20039;-67
2021/01/15 08:33:26;;;;;;;10.40;5.57;;;3.10;92.00;;;;;;5051287;28;20017;-65
2021/01/15 08:35:53;;;;;;;7.88;4.97;;;3.10;92.00;;;;;;5050911;28;20552;-68
2021/01/15 08:38:29;;;;;;;9.82;5.30;;;3.10;91.90;;;;;;5054731;28;20043;-69
2021/01/15 08:40:59;;;;;;;8.32;5.47;;;3.10;92.00;;;;;;5050282;28;20501;-70
2021/01/15 08:43:25;;;;;;;10.63;5.38;;;3.10;92.20;;;;;;5050101;28;20039;-70
2021/01/15 08:45:52;;;;;;;10.05;5.65;;;3.10;92.30;;;;;;5049016;28;20474;-70
2021/01/15 08:48:20;;;;;;;9.63;5.60;;;3.20;92.30;;;;;;5052094;28;20065;-71
2021/01/15 08:50:46;;;;;;;9.05;5.68;;;3.20;92.30;;;;;;5054999;28;20033;-70
2021/01/15 08:53:16;;;;;;;10.82;6.50;;;3.20;92.30;;;;;;5053156;28;20021;-68
2021/01/15 08:55:43;;;;;;;12.07;6.35;;;3.20;92.40;;;;;;5050829;28;20017;-68
2021/01/15 08:58:09;;;;;;;10.93;6.43;;;3.30;92.40;;;;;;5053155;28;20037;-69
2021/01/15 09:00:35;;;;;;;10.55;6.88;;;3.20;92.30;;;;;;5050225;28;20749;-69
2021/01/15 09:03:03;;;;;;;10.02;5.75;;;3.20;92.40;;;;;;5067857;28;20075;-69
2021/01/15 09:05:31;;;;;;;8.68;5.78;;;3.20;92.40;;;;;;5071132;28;20043;-69
2021/01/15 09:08:02;;;;;;;9.23;5.97;;;3.20;92.30;;;;;;5069232;28;20112;-69
2021/01/15 09:10:28;;;;;;;9.90;6.00;;;3.20;92.20;;;;;;5070392;28;20025;-69
2021/01/15 09:13:00;;;;;;;10.60;6.43;;;3.20;92.20;;;;;;5053696;28;20371;-69
2021/01/15 09:15:26;;;;;;;9.18;5.65;;;3.20;92.50;;;;;;5051155;28;20131;-71
2021/01/15 09:17:53;;;;;;;10.38;6.72;;;3.10;92.40;;;;;;5050906;28;20377;-69
2021/01/15 09:20:19;;;;;;;12.13;6.78;;;3.10;92.40;;;;;;5051539;28;20040;-69
2021/01/15 09:22:45;;;;;;;11.23;6.95;;;3.10;92.60;;;;;;5064176;28;20036;-69
2021/01/15 09:25:13;;;;;;;12.90;7.07;;;3.20;92.80;;;;;;5057759;28;20079;-69
2021/01/15 09:27:38;;;;;;;10.85;6.93;;;3.20;93.00;;;;;;5050566;28;20021;-69
2021/01/15 09:30:04;;;;;;;13.43;6.60;;;3.10;93.10;;;;;;5069433;28;20027;-70
2021/01/15 09:32:30;;;;;;;13.55;8.30;;;3.20;93.30;;;;;;5054234;28;20120;-70
2021/01/15 09:34:55;;;;;;;14.10;8.02;;;3.20;93.30;;;;;;5051027;28;20111;-69
2021/01/15 09:37:21;;;;;;;13.82;8.07;;;3.30;93.40;;;;;;5051764;28;20108;-69
2021/01/15 09:39:46;;;;;;;15.90;8.05;;;3.40;93.30;;;;;;5049564;28;20016;-68
2021/01/15 09:42:14;;;;;;;9.75;6.22;;;3.40;93.20;;;;;;5059824;28;20027;-69
2021/01/15 09:44:40;;;;;;;9.95;6.20;;;3.40;93.10;;;;;;5070346;28;20067;-69
2021/01/15 09:47:06;;;;;;;10.75;6.20;;;3.40;92.70;;;;;;5067671;28;20491;-69
2021/01/15 09:49:32;;;;;;;13.95;7.53;;;3.40;92.60;;;;;;5064272;28;20067;-68
2021/01/15 09:51:58;;;;;;;12.80;6.70;;;3.40;92.30;;;;;;5050116;28;20040;-69
2021/01/15 09:54:23;;;;;;;12.27;6.70;;;3.30;92.40;;;;;;5050088;28;20025;-69
2021/01/15 09:56:49;;;;;;;12.98;7.00;;;3.40;92.30;;;;;;5054507;28;20051;-69
2021/01/15 09:59:16;;;;;;;10.98;7.38;;;3.30;92.10;;;;;;5052278;28;20021;-69
2021/01/15 10:01:43;;;;;;;11.00;6.43;;;3.30;92.10;;;;;;5055211;28;20067;-69
2021/01/15 10:04:09;;;;;;;11.60;6.70;;;3.30;92.10;;;;;;5070585;28;20054;-69
2021/01/15 10:06:38;;;;;;;10.50;6.75;;;3.20;92.00;;;;;;5068245;28;20017;-70
2021/01/15 10:09:04;;;;;;;11.73;6.45;;;3.20;92.20;;;;;;5072924;28;20385;-69
2021/01/15 10:11:32;;;;;;;10.82;6.45;;;3.10;92.50;;;;;;5069056;28;20044;-69
2021/01/15 10:14:03;;;;;;;11.60;7.13;;;3.10;92.70;;;;;;5068305;28;20029;-69
2021/01/15 10:16:29;;;;;;;12.30;7.07;;;3.10;92.80;;;;;;5056531;28;20028;-69
2021/01/15 10:18:55;;;;;;;13.82;7.93;;;3.10;92.80;;;;;;5060074;28;20508;-69
2021/01/15 10:21:28;;;;;;;13.20;7.63;;;3.20;92.90;;;;;;5060662;28;20039;-69
2021/01/15 10:23:57;;;;;;;11.80;7.03;;;3.20;92.90;;;;;;5052750;28;20076;-69
2021/01/15 10:26:28;;;;;;;13.85;7.60;;;3.30;92.90;;;;;;5063386;28;20020;-69
2021/01/15 10:28:56;;;;;;;10.88;7.13;;;3.30;92.90;;;;;;5059014;28;20104;-70
2021/01/15 10:31:24;;;;;;;11.68;6.97;;;3.40;93.10;;;;;;5052090;28;20552;-70
2021/01/15 10:33:49;;;;;;;11.95;6.15;;;3.40;92.90;;;;;;5053707;28;20028;-69
2021/01/15 10:36:15;;;;;;;12.52;6.78;;;3.40;92.80;;;;;;5054429;28;20031;-69
2021/01/15 10:38:40;;;;;;;10.32;6.10;;;3.50;92.90;;;;;;5066884;28;20025;-69
2021/01/15 10:41:05;;;;;;;9.98;6.13;;;3.50;92.90;;;;;;5066509;28;20105;-67
2021/01/15 10:43:31;;;;;;;11.30;6.80;;;3.60;92.30;;;;;;5053424;28;20040;-68
2021/01/15 10:45:56;;;;;;;10.65;6.82;;;3.50;92.40;;;;;;5052770;28;20025;-69
2021/01/15 10:48:22;;;;;;;10.82;6.18;;;3.50;92.00;;;;;;5054891;28;20056;-70
2021/01/15 10:50:48;;;;;;;10.60;6.45;;;3.50;92.20;;;;;;5052800;28;20381;-69
2021/01/15 10:53:13;;;;;;;13.20;7.35;;;3.50;92.10;;;;;;5058711;28;20032;-70
2021/01/15 10:55:39;;;;;;;12.63;6.80;;;3.50;92.30;;;;;;5054020;28;20036;-67
2021/01/15 10:58:05;;;;;;;14.13;6.38;;;3.40;92.40;;;;;;5069752;28;20025;-69
2021/01/15 11:00:31;;;;;;;14.07;7.80;;;3.40;92.50;;;;;;5059171;28;20044;-68
2021/01/15 11:02:56;;;;;;;10.65;6.68;;;3.50;92.20;;;;;;5055266;28;20111;-69
2021/01/15 11:05:22;;;;;;;11.30;6.65;;;3.60;92.50;;;;;;5063001;28;20514;-69
2021/01/15 11:07:47;;;;;;;9.38;6.25;;;3.60;91.90;;;;;;5062378;28;20036;-69
2021/01/15 11:10:13;;;;;;;12.90;7.47;;;3.60;92.20;;;;;;5052733;28;20040;-69
2021/01/15 11:12:40;;;;;;;10.48;6.25;;;3.70;92.10;;;;;;5053166;28;20043;-69
2021/01/15 11:15:07;;;;;;;10.63;6.47;;;3.70;92.00;;;;;;5070708;28;20032;-68
2021/01/15 11:17:35;;;;;;;9.00;5.38;;;3.70;91.90;;;;;;5069431;28;20426;-69
2021/01/15 11:20:00;;;;;;;11.82;5.90;;;3.70;91.40;;;;;;5051421;28;20033;-67
2021/01/15 11:22:26;;;;;;;11.55;7.00;;;3.70;91.80;;;;;;5069530;28;20032;-68
2021/01/15 11:24:52;;;;;;;9.68;6.38;;;3.60;91.60;;;;;;5055551;28;20021;-68
2021/01/15 11:27:17;;;;;;;12.82;6.65;;;3.70;91.90;;;;;;5061625;28;20049;-67
2021/01/15 11:29:43;;;;;;;12.35;6.43;;;3.60;92.00;;;;;;5070580;28;20103;-68
2021/01/15 11:32:08;;;;;;;10.75;6.00;;;3.60;91.40;;;;;;5071486;28;20025;-68
2021/01/15 11:34:34;;;;;;;10.85;6.90;;;3.60;91.70;;;;;;5058347;28;20025;-67
2021/01/15 11:37:00;;;;;;;10.30;6.32;;;3.60;91.70;;;;;;5052694;28;20025;-69
2021/01/15 11:39:26;;;;;;;12.43;6.88;;;3.50;91.70;;;;;;5052392;28;20091;-68
2021/01/15 11:41:52;;;;;;;11.40;6.90;;;3.60;91.80;;;;;;5059354;28;20484;-68
2021/01/15 11:44:18;;;;;;;11.55;6.70;;;3.50;91.70;;;;;;5056843;28;20080;-69
2021/01/15 11:46:43;;;;;;;10.27;6.63;;;3.50;91.80;;;;;;5060453;28;20511;-68
2021/01/15 11:49:09;;;;;;;11.15;6.75;;;3.50;91.80;;;;;;5052311;28;20075;-68
2021/01/15 11:51:35;;;;;;;9.88;6.43;;;3.50;91.90;;;;;;5052244;28;20106;-67
2021/01/15 11:54:00;;;;;;;13.00;6.93;;;3.50;91.50;;;;;;5052118;28;20018;-68
2021/01/15 11:56:25;;;;;;;11.88;6.30;;;3.40;91.80;;;;;;5070722;28;20028;-68
2021/01/15 11:58:51;;;;;;;12.85;7.47;;;3.50;92.00;;;;;;5072471;28;20032;-69
2021/01/15 12:01:17;;;;;;;13.55;7.60;;;3.50;92.00;;;;;;5070884;28;20484;-68
2021/01/15 12:03:43;;;;;;;11.20;6.80;;;3.60;92.10;;;;;;5071980;28;20131;-68
2021/01/15 12:06:08;;;;;;;10.48;6.47;;;3.60;91.90;;;;;;5068926;28;20150;-68
2021/01/15 12:08:34;;;;;;;11.57;6.50;;;3.50;91.70;;;;;;5060919;28;20510;-68
2021/01/15 12:11:05;;;;;;;9.52;6.40;;;3.60;91.80;;;;;;5062695;28;20123;-68
2021/01/15 12:13:30;;;;;;;10.38;6.28;;;3.50;91.90;;;;;;5061246;28;20083;-68
2021/01/15 12:15:57;;;;;;;12.02;6.63;;;3.50;91.90;;;;;;5056114;28;20052;-68
2021/01/15 12:18:24;;;;;;;12.30;6.53;;;3.50;91.80;;;;;;5071848;28;20052;-68
2021/01/15 12:20:49;;;;;;;8.52;5.38;;;3.50;91.80;;;;;;5070886;28;20119;-68
2021/01/15 12:23:16;;;;;;;10.60;6.55;;;3.50;91.60;;;;;;5070338;28;20111;-68
2021/01/15 12:25:42;;;;;;;10.70;7.13;;;3.40;91.70;;;;;;5069107;28;20031;-68
2021/01/15 12:28:08;;;;;;;10.00;7.05;;;3.30;91.80;;;;;;5069317;28;20020;-68
2021/01/15 12:30:34;;;;;;;11.38;6.78;;;3.30;91.90;;;;;;5054862;28;20037;-68
2021/01/15 12:33:07;;;;;;;10.90;6.45;;;3.20;92.00;;;;;;5049885;28;20509;-68
2021/01/15 12:35:33;;;;;;;9.85;6.38;;;3.30;92.20;;;;;;5051355;28;20112;-68
2021/01/15 12:38:06;;;;;;;11.20;5.95;;;3.30;92.00;;;;;;5052846;28;20400;-68
2021/01/15 12:40:32;;;;;;;10.43;6.40;;;3.30;92.20;;;;;;5070799;28;20063;-69
2021/01/15 12:42:58;;;;;;;11.93;6.40;;;3.30;92.20;;;;;;5071379;28;20080;-71
2021/01/15 12:45:23;;;;;;;9.05;5.45;;;3.30;92.30;;;;;;5062609;28;20441;-70
2021/01/15 12:47:49;;;;;;;13.57;6.80;;;3.40;92.10;;;;;;5071422;28;20021;-70
2021/01/15 12:50:14;;;;;;;9.38;6.63;;;3.40;92.20;;;;;;5070625;28;20048;-70
2021/01/15 12:52:40;;;;;;;8.98;5.88;;;3.40;92.00;;;;;;5054325;28;20068;-70
2021/01/15 12:55:06;;;;;;;12.88;7.13;;;3.40;91.90;;;;;;5059279;28;20626;-69
2021/01/15 12:57:32;;;;;;;11.40;7.18;;;3.40;92.00;;;;;;5051370;28;20032;-69
2021/01/15 12:59:57;;;;;;;14.05;7.22;;;3.40;92.00;;;;;;5050893;28;20490;-69